Terminal Aerodrome Forecast
Issued by NWS

Home | Current Version | Previous Version | Text Only | Print | Product List | Glossary On
Versions: 1 2 3 4 5 6 7 8 9 10 11 12 13 14
681
FTUS42 KFFC 290542
TAFRYY
TAF
KRYY 290542Z 2906/3006 09003KT P6SM FEW140 SCT250
     FM291000 05003KT P6SM FEW060 SCT250
     FM291400 35005KT P6SM FEW040 SCT120
     FM291800 35006KT P6SM SCT060 SCT120
     FM292300 35005KT P6SM FEW080
     FM300300 00000KT P6SM SKC
      AMD NOT SKED TIL 291200=

USA.gov is the U.S. government's official web portal to all federal, state and local government web resources and services.